Time;durP1;ratioP1;P1;durP2;ratioP2;P2;SDS_P1;SDS_P2;PMS_P1;PMS_P2;Temp;Humidity;BMP_temperature;BMP_pressure;BME280_temperature;BME280_humidity;BME280_pressure;Samples;Min_cycle;Max_cycle;Signal;HPM_P1;HPM_P2
2023/12/19 00:00:16;;;;;;;;;;;;;;;-1.12;54.27;96451.75;4998331;28;20067;-78
2023/12/19 00:02:41;;;;;;;;;;;;;;;-0.57;54.36;96444.38;5003648;28;19928;-79
2023/12/19 00:05:09;;;;;;;;;;;;;;;-0.46;53.36;96451.63;4998662;28;19976;-78
2023/12/19 00:07:35;;;;;;;;;;;;;;;-0.94;55.00;96468.22;4997808;28;19966;-78
2023/12/19 00:10:00;;;;;;;;;;;;;;;-1.05;55.00;96470.53;4996173;28;19958;-77
2023/12/19 00:12:25;;;;;;;;;;;;;;;-1.01;55.38;96465.06;4993964;28;20134;-78
2023/12/19 00:14:51;;;;;;;;;;;;;;;-0.91;55.43;96454.97;5002334;28;19936;-78
2023/12/19 00:17:16;;;;;;;;;;;;;;;-0.77;54.96;96448.97;4997934;28;19922;-77
2023/12/19 00:19:41;;;;;;;;;;;;;;;-0.59;55.03;96441.00;4996072;28;19959;-80
2023/12/19 00:22:06;;;;;;;;;;;;;;;-0.41;54.06;96430.44;5010833;28;19918;-78
2023/12/19 00:24:32;;;;;;;;;;;;;;;-0.27;53.91;96421.75;4997982;28;20322;-78
2023/12/19 00:26:57;;;;;;;;;;;;;;;-0.07;59.74;96415.31;4997276;28;20012;-81
2023/12/19 00:29:22;;;;;;;;;;;;;;;-0.43;54.06;96417.44;4997430;28;19929;-79
2023/12/19 00:31:47;;;;;;;;;;;;;;;-0.38;53.39;96412.75;4995189;28;19926;-77
2023/12/19 00:34:13;;;;;;;;;;;;;;;0.10;54.97;96405.63;4993043;28;19917;-80
2023/12/19 00:36:39;;;;;;;;;;;;;;;0.23;54.49;96410.94;4994741;28;19961;-79
2023/12/19 00:39:04;;;;;;;;;;;;;;;0.27;52.08;96413.31;4996835;28;19956;-80
2023/12/19 00:41:29;;;;;;;;;;;;;;;0.36;51.96;96397.94;4996630;28;19964;-79
2023/12/19 00:43:55;;;;;;;;;;;;;;;0.03;52.33;96407.75;4978859;28;20039;-79
2023/12/19 00:46:20;;;;;;;;;;;;;;;0.00;52.73;96400.94;4995503;28;19921;-78
2023/12/19 00:48:45;;;;;;;;;;;;;;;0.27;51.96;96399.38;4997314;28;20465;-77
2023/12/19 00:51:11;;;;;;;;;;;;;;;0.41;51.60;96412.44;4991654;28;19952;-79
2023/12/19 00:53:36;;;;;;;;;;;;;;;0.37;51.09;96423.22;4995063;28;19988;-77
2023/12/19 00:56:02;;;;;;;;;;;;;;;0.10;51.80;96416.94;4992675;28;20012;-77
2023/12/19 00:58:27;;;;;;;;;;;;;;;-0.12;52.60;96406.91;4991053;28;19964;-78
2023/12/19 01:00:52;;;;;;;;;;;;;;;0.03;52.65;96411.25;4996068;28;20383;-78
2023/12/19 01:03:17;;;;;;;;;;;;;;;0.06;52.63;96403.19;4994992;28;19949;-77
2023/12/19 01:05:43;;;;;;;;;;;;;;;0.08;52.78;96398.69;4995688;28;20306;-76
2023/12/19 01:08:08;;;;;;;;;;;;;;;0.16;52.07;96408.72;4994716;28;20009;-77
2023/12/19 01:10:34;;;;;;;;;;;;;;;-0.84;53.50;96417.06;4994055;28;20232;-77
2023/12/19 01:12:59;;;;;;;;;;;;;;;-0.39;53.97;96415.47;4995237;28;19933;-77
2023/12/19 01:15:24;;;;;;;;;;;;;;;-0.07;53.14;96410.09;4992248;28;20167;-77
2023/12/19 01:17:49;;;;;;;;;;;;;;;-0.46;54.26;96410.59;4993977;28;19972;-77
2023/12/19 01:20:15;;;;;;;;;;;;;;;-0.38;55.68;96404.91;4989535;28;19968;-77
2023/12/19 01:22:40;;;;;;;;;;;;;;;-0.13;55.62;96394.78;4995579;28;20018;-76
2023/12/19 01:25:06;;;;;;;;;;;;;;;0.24;56.89;96403.00;4997187;28;20432;-77
2023/12/19 01:27:32;;;;;;;;;;;;;;;0.44;55.77;96399.16;4998639;28;20407;-77
2023/12/19 01:29:57;;;;;;;;;;;;;;;0.05;56.03;96398.91;4998967;28;20024;-77
2023/12/19 01:32:22;;;;;;;;;;;;;;;0.31;54.52;96395.63;4996337;28;20337;-77
2023/12/19 01:34:48;;;;;;;;;;;;;;;-0.20;54.05;96395.13;4998995;28;20095;-77
2023/12/19 01:37:13;;;;;;;;;;;;;;;0.37;53.22;96405.72;4997795;28;20250;-77
2023/12/19 01:39:38;;;;;;;;;;;;;;;0.23;53.74;96403.94;4998700;28;20417;-77
2023/12/19 01:42:04;;;;;;;;;;;;;;;0.17;53.78;96412.19;4996411;28;19921;-76
2023/12/19 01:44:29;;;;;;;;;;;;;;;0.32;53.29;96424.34;4996459;28;19921;-77
2023/12/19 01:46:54;;;;;;;;;;;;;;;0.01;54.33;96413.13;4998607;28;19953;-76
2023/12/19 01:49:19;;;;;;;;;;;;;;;0.02;54.18;96409.56;4998299;28;20453;-76
2023/12/19 01:51:45;;;;;;;;;;;;;;;0.09;53.28;96415.25;4994480;28;20362;-76
2023/12/19 01:54:11;;;;;;;;;;;;;;;0.05;54.34;96417.25;4998469;28;19955;-77
2023/12/19 01:56:36;;;;;;;;;;;;;;;0.07;57.57;96404.88;4995401;28;19995;-77
2023/12/19 01:59:01;;;;;;;;;;;;;;;-0.25;55.32;96412.03;4998785;28;19917;-77
2023/12/19 02:01:27;;;;;;;;;;;;;;;0.12;56.21;96409.00;4997521;28;20218;-76
2023/12/19 02:03:52;;;;;;;;;;;;;;;0.27;55.12;96402.81;4998009;28;19922;-77
2023/12/19 02:06:18;;;;;;;;;;;;;;;-0.51;55.52;96402.16;4996783;28;19917;-76
2023/12/19 02:08:43;;;;;;;;;;;;;;;0.19;54.98;96400.69;4991875;28;19936;-76
2023/12/19 02:11:09;;;;;;;;;;;;;;;0.30;55.40;96386.94;4997826;28;20558;-76
2023/12/19 02:13:34;;;;;;;;;;;;;;;0.44;59.24;96377.34;4997876;28;19980;-76
2023/12/19 02:15:59;;;;;;;;;;;;;;;0.11;53.94;96373.28;4997630;28;19921;-77
2023/12/19 02:18:25;;;;;;;;;;;;;;;-0.04;55.88;96362.78;4998726;28;20145;-77
2023/12/19 02:20:50;;;;;;;;;;;;;;;-0.12;55.55;96365.88;4992714;28;20026;-78
2023/12/19 02:23:15;;;;;;;;;;;;;;;0.29;57.97;96359.06;4999130;28;20004;-78
2023/12/19 02:25:41;;;;;;;;;;;;;;;0.57;56.38;96354.69;4994236;28;19929;-78
2023/12/19 02:28:06;;;;;;;;;;;;;;;-0.01;58.66;96357.38;4995870;28;20048;-77
2023/12/19 02:30:32;;;;;;;;;;;;;;;0.53;55.41;96363.69;4997037;28;20339;-80
2023/12/19 02:33:00;;;;;;;;;;;;;;;0.42;54.25;96353.03;4995974;28;20378;-78
2023/12/19 02:35:25;;;;;;;;;;;;;;;0.55;55.39;96343.47;4998888;28;19932;-78
2023/12/19 02:37:50;;;;;;;;;;;;;;;0.55;54.16;96343.47;4975560;28;20574;-78
2023/12/19 02:40:16;;;;;;;;;;;;;;;0.46;55.71;96344.91;4996080;28;19960;-78
2023/12/19 02:42:41;;;;;;;;;;;;;;;0.56;56.21;96333.81;4941589;28;19920;-78
2023/12/19 02:45:08;;;;;;;;;;;;;;;0.20;56.71;96329.03;4987610;28;19932;-78
2023/12/19 02:50:08;;;;;;;;;;;;;;;-0.52;55.29;96332.47;5380827;23;19929;-78
2023/12/19 02:52:33;;;;;;;;;;;;;;;-2.06;60.01;96335.72;4984390;23;20001;-78
2023/12/19 02:54:58;;;;;;;;;;;;;;;-0.84;60.29;96330.78;4937362;28;20206;-78
2023/12/19 02:57:24;;;;;;;;;;;;;;;-0.45;56.73;96323.31;5354802;23;19929;-76
2023/12/19 02:59:49;;;;;;;;;;;;;;;-0.01;57.41;96330.34;4992358;28;20083;-77
2023/12/19 03:02:14;;;;;;;;;;;;;;;-0.24;55.90;96314.28;4997989;28;19954;-76
2023/12/19 03:04:39;;;;;;;;;;;;;;;-1.03;57.78;96323.16;4996023;28;19956;-76
2023/12/19 03:07:05;;;;;;;;;;;;;;;-0.02;56.17;96316.44;4995001;28;19955;-76
2023/12/19 03:09:30;;;;;;;;;;;;;;;0.29;55.10;96311.91;4993320;28;20001;-76
2023/12/19 03:12:03;;;;;;;;;;;;;;;0.45;54.69;96310.94;4993335;28;19929;-76
2023/12/19 03:14:29;;;;;;;;;;;;;;;0.69;55.39;96298.00;4996562;28;20515;-76
2023/12/19 03:16:54;;;;;;;;;;;;;;;0.58;56.07;96292.66;4995169;28;19921;-76
2023/12/19 03:19:19;;;;;;;;;;;;;;;0.54;55.52;96286.75;4997946;28;19948;-76
2023/12/19 03:21:44;;;;;;;;;;;;;;;-1.49;59.22;96288.22;4995450;28;20697;-76
2023/12/19 03:24:10;;;;;;;;;;;;;;;-0.87;58.42;96290.91;4995850;28;19983;-76
2023/12/19 03:26:35;;;;;;;;;;;;;;;-0.74;57.75;96291.88;4991232;28;20006;-76
2023/12/19 03:29:00;;;;;;;;;;;;;;;-0.70;59.01;96293.38;4995622;28;20505;-77
2023/12/19 03:31:25;;;;;;;;;;;;;;;0.08;56.78;96285.28;4995348;28;19960;-76
2023/12/19 03:33:51;;;;;;;;;;;;;;;-0.03;57.60;96283.31;4997770;28;19956;-76
2023/12/19 03:36:16;;;;;;;;;;;;;;;0.26;58.87;96285.03;4994470;28;19986;-76
2023/12/19 03:38:41;;;;;;;;;;;;;;;0.33;57.77;96286.34;4992504;28;20344;-76
2023/12/19 03:41:07;;;;;;;;;;;;;;;-0.63;56.18;96287.78;4996941;28;19976;-76
2023/12/19 03:43:33;;;;;;;;;;;;;;;-0.03;57.00;96287.72;4997373;28;20238;-76
2023/12/19 03:46:01;;;;;;;;;;;;;;;0.06;55.23;96287.13;4997747;28;19917;-76
2023/12/19 03:48:26;;;;;;;;;;;;;;;-0.07;55.48;96274.81;4993239;28;20018;-76
2023/12/19 03:50:52;;;;;;;;;;;;;;;-0.08;55.87;96275.75;4994613;28;19959;-76
2023/12/19 03:53:17;;;;;;;;;;;;;;;-0.23;56.29;96277.53;4995869;28;19926;-76
2023/12/19 03:55:42;;;;;;;;;;;;;;;-0.13;55.58;96279.59;4993294;28;19925;-76
2023/12/19 03:58:07;;;;;;;;;;;;;;;0.45;55.65;96269.84;4996233;28;20029;-77
2023/12/19 04:00:33;;;;;;;;;;;;;;;0.59;54.06;96263.69;4997268;28;19960;-78
2023/12/19 04:02:58;;;;;;;;;;;;;;;-0.48;55.51;96265.94;4996142;28;19921;-78
2023/12/19 04:05:23;;;;;;;;;;;;;;;-2.20;61.67;96268.59;4980464;28;19921;-78
2023/12/19 04:07:49;;;;;;;;;;;;;;;-1.36;60.31;96245.72;4995063;28;19959;-78
2023/12/19 04:10:14;;;;;;;;;;;;;;;-0.78;59.97;96243.28;4996581;28;20008;-78
2023/12/19 04:12:39;;;;;;;;;;;;;;;-0.35;60.19;96234.63;4994122;28;20531;-78
2023/12/19 04:15:04;;;;;;;;;;;;;;;-0.07;58.44;96232.91;4996632;28;20034;-78
2023/12/19 04:17:30;;;;;;;;;;;;;;;-0.28;58.98;96232.47;4998658;28;20172;-78
2023/12/19 04:19:55;;;;;;;;;;;;;;;-0.57;60.51;96229.88;4996538;28;20472;-78
2023/12/19 04:22:20;;;;;;;;;;;;;;;-0.80;58.12;96232.09;4995166;28;20028;-78
2023/12/19 04:24:46;;;;;;;;;;;;;;;-0.64;58.84;96233.81;4995134;28;19960;-78
2023/12/19 04:27:11;;;;;;;;;;;;;;;0.14;55.55;96236.91;4996468;28;20496;-78
2023/12/19 04:29:36;;;;;;;;;;;;;;;0.39;56.11;96235.34;4998102;28;19917;-78
2023/12/19 04:32:02;;;;;;;;;;;;;;;-0.07;57.15;96242.53;4994180;28;19925;-78
2023/12/19 04:34:27;;;;;;;;;;;;;;;0.40;57.36;96244.88;5013515;28;19925;-79
2023/12/19 04:36:52;;;;;;;;;;;;;;;0.42;55.53;96243.00;4979091;28;19926;-78
2023/12/19 04:39:17;;;;;;;;;;;;;;;0.56;55.34;96245.56;4997313;28;19938;-78
2023/12/19 04:41:43;;;;;;;;;;;;;;;-0.12;56.54;96248.09;5013328;28;20053;-78
2023/12/19 04:44:08;;;;;;;;;;;;;;;-0.07;54.68;96246.00;4997982;28;19952;-78
2023/12/19 04:46:33;;;;;;;;;;;;;;;0.41;57.84;96252.63;4992344;28;19952;-78
2023/12/19 04:48:59;;;;;;;;;;;;;;;0.53;57.26;96244.91;4997412;28;19976;-78
2023/12/19 04:51:24;;;;;;;;;;;;;;;0.51;57.78;96249.44;4994293;28;20365;-78
2023/12/19 04:53:50;;;;;;;;;;;;;;;0.47;56.80;96238.28;4998137;28;20090;-78
2023/12/19 04:56:16;;;;;;;;;;;;;;;-1.05;57.77;96241.34;5012719;28;20218;-78
2023/12/19 04:58:41;;;;;;;;;;;;;;;-0.07;60.46;96237.31;5012907;28;20841;-78
2023/12/19 05:01:07;;;;;;;;;;;;;;;0.53;55.97;96230.06;4994145;28;20050;-78
2023/12/19 05:03:33;;;;;;;;;;;;;;;0.30;55.46;96224.50;4999458;28;20651;-78
2023/12/19 05:05:59;;;;;;;;;;;;;;;0.25;56.10;96238.84;4999566;28;19917;-78
2023/12/19 05:08:24;;;;;;;;;;;;;;;-0.16;56.80;96230.88;5015816;28;20416;-78
2023/12/19 05:10:49;;;;;;;;;;;;;;;0.19;58.13;96232.22;5001789;28;19991;-78
2023/12/19 05:13:14;;;;;;;;;;;;;;;0.04;56.18;96223.56;5001808;28;19921;-78
2023/12/19 05:15:40;;;;;;;;;;;;;;;0.28;55.47;96222.94;5000009;28;19928;-78
2023/12/19 05:18:05;;;;;;;;;;;;;;;-1.10;57.62;96227.72;4982638;28;20589;-79
2023/12/19 05:20:30;;;;;;;;;;;;;;;-1.53;58.78;96228.44;5001559;28;19929;-78
2023/12/19 05:22:56;;;;;;;;;;;;;;;-0.51;60.46;96216.41;4999786;28;20043;-78
2023/12/19 05:25:21;;;;;;;;;;;;;;;-2.88;61.56;96226.91;4999648;28;19953;-78
2023/12/19 05:27:46;;;;;;;;;;;;;;;-0.80;59.40;96216.41;4999632;28;19922;-78
2023/12/19 05:30:12;;;;;;;;;;;;;;;-0.44;57.85;96219.47;5016612;28;20050;-78
2023/12/19 05:32:38;;;;;;;;;;;;;;;-0.19;59.28;96213.56;4996384;28;20016;-78
2023/12/19 05:35:03;;;;;;;;;;;;;;;-0.07;56.86;96203.28;4999794;28;20436;-78
2023/12/19 05:37:29;;;;;;;;;;;;;;;-0.18;59.28;96203.97;4999861;28;20162;-78
2023/12/19 05:39:55;;;;;;;;;;;;;;;-0.13;55.59;96211.53;4997275;28;19930;-78
2023/12/19 05:42:20;;;;;;;;;;;;;;;-0.79;57.02;96214.63;5000204;28;19972;-78
2023/12/19 05:44:45;;;;;;;;;;;;;;;-3.02;64.72;96219.78;4987080;28;19922;-78
2023/12/19 05:47:11;;;;;;;;;;;;;;;-2.61;65.26;96223.78;4972653;28;20020;-78
2023/12/19 05:49:36;;;;;;;;;;;;;;;-2.12;62.18;96224.66;4999133;28;19945;-78
2023/12/19 05:52:02;;;;;;;;;;;;;;;-2.85;66.90;96216.28;4994205;28;20331;-78
2023/12/19 05:54:27;;;;;;;;;;;;;;;-1.60;61.63;96209.63;5015514;28;19932;-78
2023/12/19 05:56:52;;;;;;;;;;;;;;;-0.65;59.75;96201.56;4998552;28;19936;-78
2023/12/19 05:59:17;;;;;;;;;;;;;;;-0.42;60.14;96204.53;5000317;28;20823;-78
2023/12/19 06:01:43;;;;;;;;;;;;;;;-0.09;62.50;96202.53;4999266;28;19925;-78
2023/12/19 06:04:08;;;;;;;;;;;;;;;0.11;58.48;96213.53;5015373;28;20480;-78
2023/12/19 06:06:37;;;;;;;;;;;;;;;-0.68;59.47;96198.31;4999037;28;20547;-78
2023/12/19 06:09:02;;;;;;;;;;;;;;;-0.53;60.24;96193.91;4998667;28;19926;-78
2023/12/19 06:11:28;;;;;;;;;;;;;;;-1.31;59.67;96188.84;4998583;28;19933;-78
2023/12/19 06:13:53;;;;;;;;;;;;;;;-0.21;56.88;96189.28;5015347;28;19961;-78
2023/12/19 06:16:19;;;;;;;;;;;;;;;-0.43;57.09;96190.63;4996764;28;19956;-78
2023/12/19 06:18:44;;;;;;;;;;;;;;;-0.38;56.62;96181.63;5014262;28;19931;-78
2023/12/19 06:21:10;;;;;;;;;;;;;;;-0.35;58.27;96186.69;5014665;28;19934;-76
2023/12/19 06:23:35;;;;;;;;;;;;;;;-0.33;56.51;96185.66;4996860;28;19995;-76
2023/12/19 06:26:00;;;;;;;;;;;;;;;-0.09;55.60;96176.38;4999679;28;19944;-77
2023/12/19 06:28:26;;;;;;;;;;;;;;;-1.66;58.54;96197.75;4997561;28;20748;-76
2023/12/19 06:30:51;;;;;;;;;;;;;;;-0.70;57.71;96186.13;4999973;28;19921;-76
2023/12/19 06:33:16;;;;;;;;;;;;;;;-1.25;58.01;96187.66;4994860;28;19926;-76
2023/12/19 06:35:43;;;;;;;;;;;;;;;-1.05;59.43;96178.59;4998936;28;19922;-76
2023/12/19 06:38:08;;;;;;;;;;;;;;;-1.50;59.95;96178.59;5013862;28;19981;-76
2023/12/19 06:40:33;;;;;;;;;;;;;;;-1.31;58.96;96162.72;4999204;28;19930;-76
2023/12/19 06:42:59;;;;;;;;;;;;;;;-0.90;58.94;96170.81;5014233;28;20456;-76
2023/12/19 06:45:24;;;;;;;;;;;;;;;-1.23;58.97;96157.03;4999191;28;20055;-76
2023/12/19 06:47:49;;;;;;;;;;;;;;;-1.07;59.11;96162.19;5013314;28;19952;-76
2023/12/19 06:50:16;;;;;;;;;;;;;;;-1.04;59.61;96155.94;4998059;28;20209;-76
2023/12/19 06:52:41;;;;;;;;;;;;;;;-0.82;58.31;96151.13;4989978;28;19963;-76
2023/12/19 06:55:07;;;;;;;;;;;;;;;-2.55;63.35;96147.81;4997044;28;19961;-76
2023/12/19 06:57:32;;;;;;;;;;;;;;;-1.88;61.59;96140.72;5013605;28;19968;-76
2023/12/19 06:59:57;;;;;;;;;;;;;;;-1.42;61.16;96139.00;4997000;28;20338;-76
2023/12/19 07:02:22;;;;;;;;;;;;;;;-0.90;59.42;96135.06;5013935;28;19948;-76
2023/12/19 07:04:48;;;;;;;;;;;;;;;-1.31;58.96;96133.97;4998517;28;19925;-76
2023/12/19 07:07:13;;;;;;;;;;;;;;;-1.09;59.27;96136.16;4998144;28;20010;-76
2023/12/19 07:09:38;;;;;;;;;;;;;;;-1.11;59.11;96145.03;4997283;28;19960;-76
2023/12/19 07:12:04;;;;;;;;;;;;;;;-3.05;64.57;96144.38;4998821;28;19970;-76
2023/12/19 07:14:29;;;;;;;;;;;;;;;-3.12;66.51;96154.28;4997219;28;19929;-76
2023/12/19 07:16:54;;;;;;;;;;;;;;;-1.82;64.51;96142.13;4980672;28;19922;-76
2023/12/19 07:19:19;;;;;;;;;;;;;;;-3.09;64.56;96156.72;4997100;28;19987;-76
2023/12/19 07:21:45;;;;;;;;;;;;;;;-1.76;63.39;96134.78;4997368;28;19955;-76
2023/12/19 07:24:10;;;;;;;;;;;;;;;-1.80;63.18;96135.88;4991891;28;19925;-76
2023/12/19 07:26:36;;;;;;;;;;;;;;;-0.87;60.34;96141.88;5013396;28;19917;-77
2023/12/19 07:29:02;;;;;;;;;;;;;;;-1.92;61.18;96153.09;4998378;28;20006;-76
2023/12/19 07:31:34;;;;;;;;;;;;;;;-2.48;64.16;96150.09;4998180;28;19928;-78
2023/12/19 07:34:03;;;;;;;;;;;;;;;-1.01;60.64;96145.31;4998822;28;19928;-78
2023/12/19 07:36:29;;;;;;;;;;;;;;;-1.46;61.11;96149.63;5009416;28;19952;-78
2023/12/19 07:38:54;;;;;;;;;;;;;;;-1.08;60.35;96153.50;4994637;28;19986;-78
2023/12/19 07:41:20;;;;;;;;;;;;;;;-0.91;58.78;96146.47;4997054;28;19937;-78
2023/12/19 07:43:46;;;;;;;;;;;;;;;-1.04;60.66;96137.66;4996599;28;20190;-78
2023/12/19 07:46:11;;;;;;;;;;;;;;;-1.03;58.59;96139.31;4995035;28;19979;-78
2023/12/19 07:48:37;;;;;;;;;;;;;;;-1.01;59.89;96138.31;4994169;28;19960;-78
2023/12/19 07:51:03;;;;;;;;;;;;;;;-1.33;59.89;96135.81;5007151;28;20104;-78
2023/12/19 07:53:29;;;;;;;;;;;;;;;-1.42;61.50;96136.38;4998531;28;19923;-78
2023/12/19 07:55:57;;;;;;;;;;;;;;;-0.43;58.14;96130.44;4995804;28;20511;-78
2023/12/19 07:58:22;;;;;;;;;;;;;;;-0.42;58.56;96120.81;4995643;28;19929;-79
2023/12/19 08:00:48;;;;;;;;;;;;;;;-0.32;57.73;96124.53;4994870;28;19964;-78
2023/12/19 08:03:15;;;;;;;;;;;;;;;-1.60;61.73;96120.84;4993976;28;19947;-78
2023/12/19 08:05:45;;;;;;;;;;;;;;;-0.95;60.22;96114.44;4997843;28;19922;-79
2023/12/19 08:08:10;;;;;;;;;;;;;;;-0.97;60.45;96128.50;4994132;28;20341;-79
2023/12/19 08:10:36;;;;;;;;;;;;;;;-1.24;62.21;96124.84;4980700;28;19944;-78
2023/12/19 08:13:01;;;;;;;;;;;;;;;-0.41;59.26;96124.28;4997550;28;19929;-79
2023/12/19 08:15:26;;;;;;;;;;;;;;;0.03;58.26;96117.97;4995844;28;19921;-78
2023/12/19 08:17:52;;;;;;;;;;;;;;;-1.35;58.85;96117.63;4997899;28;19917;-78
2023/12/19 08:20:17;;;;;;;;;;;;;;;-0.92;61.98;96115.19;4992309;28;20225;-79
2023/12/19 08:22:42;;;;;;;;;;;;;;;-1.25;60.55;96120.53;4976043;28;19928;-79
2023/12/19 08:25:08;;;;;;;;;;;;;;;-0.26;59.77;96107.63;4997128;28;19922;-78
2023/12/19 08:27:35;;;;;;;;;;;;;;;-0.79;60.81;96105.66;4996236;28;19929;-78
2023/12/19 08:30:03;;;;;;;;;;;;;;;-0.52;61.55;96098.78;4993213;28;20392;-78
2023/12/19 08:32:29;;;;;;;;;;;;;;;-0.33;63.96;96099.28;5012452;28;19921;-77
2023/12/19 08:34:55;;;;;;;;;;;;;;;-0.19;57.78;96097.59;4996650;28;19929;-78
2023/12/19 08:37:20;;;;;;;;;;;;;;;0.34;59.26;96089.78;5016695;28;19970;-77
2023/12/19 08:39:46;;;;;;;;;;;;;;;-1.14;58.75;96100.75;5012119;28;19921;-78
2023/12/19 08:42:11;;;;;;;;;;;;;;;-0.05;58.60;96086.22;5001973;28;19956;-76
2023/12/19 08:44:38;;;;;;;;;;;;;;;-0.19;58.36;96097.59;5000952;28;19995;-76
2023/12/19 08:47:05;;;;;;;;;;;;;;;-0.35;59.25;96093.34;5000707;28;20546;-76
2023/12/19 08:49:31;;;;;;;;;;;;;;;-0.63;59.17;96099.47;5000703;28;19964;-76
2023/12/19 08:51:56;;;;;;;;;;;;;;;-0.14;58.35;96085.03;4988604;28;19959;-76
2023/12/19 08:54:21;;;;;;;;;;;;;;;-0.92;61.55;96083.81;4978120;28;20535;-76
2023/12/19 08:56:46;;;;;;;;;;;;;;;-1.42;62.76;96097.19;4980767;28;20399;-76
2023/12/19 08:59:12;;;;;;;;;;;;;;;-0.48;63.65;96085.41;4981150;28;19929;-76
2023/12/19 09:01:37;;;;;;;;;;;;;;;-1.11;60.53;96090.94;4979769;28;20066;-76
2023/12/19 09:04:02;;;;;;;;;;;;;;;-1.11;60.20;96090.94;4977776;28;20007;-76
2023/12/19 09:06:27;;;;;;;;;;;;;;;-0.38;59.36;96082.19;4996396;28;20014;-76
2023/12/19 09:08:53;;;;;;;;;;;;;;;-0.61;61.86;96084.53;4980995;28;20410;-76
2023/12/19 09:11:18;;;;;;;;;;;;;;;-0.14;60.54;96084.22;4981206;28;19936;-76
2023/12/19 09:13:43;;;;;;;;;;;;;;;-1.17;61.33;96080.03;4981276;28;19922;-76
2023/12/19 09:16:09;;;;;;;;;;;;;;;-0.65;58.29;96067.34;4980042;28;20049;-76
2023/12/19 09:18:34;;;;;;;;;;;;;;;-0.64;59.11;96074.25;4979686;28;20362;-76
2023/12/19 09:21:00;;;;;;;;;;;;;;;0.12;57.27;96079.88;5010549;28;20015;-76
2023/12/19 09:23:25;;;;;;;;;;;;;;;-1.66;61.71;96084.66;5000654;28;19921;-76
2023/12/19 09:25:51;;;;;;;;;;;;;;;-0.68;60.65;96076.19;5016016;28;19948;-76
2023/12/19 09:28:16;;;;;;;;;;;;;;;-0.22;57.97;96077.69;5000887;28;19991;-76
2023/12/19 09:30:41;;;;;;;;;;;;;;;0.04;59.26;96076.94;5000573;28;19929;-76
2023/12/19 09:33:07;;;;;;;;;;;;;;;-0.60;59.09;96084.41;4998256;28;19944;-76
2023/12/19 09:35:32;;;;;;;;;;;;;;;-0.08;58.86;96083.78;5000038;28;19926;-76
2023/12/19 09:38:01;;;;;;;;;;;;;;;-0.25;59.32;96077.88;5015367;28;19964;-76
2023/12/19 09:40:29;;;;;;;;;;;;;;;0.11;60.35;96074.75;4998286;28;19971;-76
2023/12/19 09:42:54;;;;;;;;;;;;;;;-1.07;63.30;96075.94;5000440;28;19973;-76
2023/12/19 09:45:20;;;;;;;;;;;;;;;-0.20;61.62;96067.94;4997960;28;19988;-75
2023/12/19 09:47:48;;;;;;;;;;;;;;;-0.07;58.64;96070.59;5013369;28;19968;-76
2023/12/19 09:50:13;;;;;;;;;;;;;;;0.19;61.59;96064.59;5013985;28;20437;-76
2023/12/19 09:52:39;;;;;;;;;;;;;;;0.72;57.27;96061.09;4992612;28;19932;-79
2023/12/19 09:55:04;;;;;;;;;;;;;;;-0.15;59.43;96051.94;4996946;28;20008;-78
2023/12/19 09:57:30;;;;;;;;;;;;;;;-0.67;59.98;96062.22;4993125;28;19983;-78
2023/12/19 09:59:55;;;;;;;;;;;;;;;-0.10;58.34;96064.75;5014856;28;19971;-79
2023/12/19 10:02:20;;;;;;;;;;;;;;;0.39;56.87;96062.44;5014940;28;19925;-77
2023/12/19 10:04:47;;;;;;;;;;;;;;;0.16;57.02;96059.56;4993992;28;19928;-77
2023/12/19 10:07:12;;;;;;;;;;;;;;;0.68;55.99;96062.25;5000062;28;20518;-80
2023/12/19 10:09:51;;;;;;;;;;;;;;;-0.26;59.20;96051.81;5000523;28;20232;-78
2023/12/19 10:12:16;;;;;;;;;;;;;;;-1.03;60.66;96053.91;4990278;28;19954;-79
2023/12/19 10:14:42;;;;;;;;;;;;;;;0.22;57.31;96046.06;4998113;28;20259;-76
2023/12/19 10:17:11;;;;;;;;;;;;;;;0.44;56.21;96048.06;5014525;28;19961;-78
2023/12/19 10:19:38;;;;;;;;;;;;;;;-0.05;57.86;96039.94;4991355;28;19982;-78
2023/12/19 10:22:10;;;;;;;;;;;;;;;0.42;56.37;96033.41;4994932;28;20015;-79
2023/12/19 10:24:36;;;;;;;;;;;;;;;0.61;55.69;96032.16;5013893;28;20018;-77
2023/12/19 10:27:05;;;;;;;;;;;;;;;-0.15;58.19;96023.16;4997670;28;20149;-80
2023/12/19 10:29:36;;;;;;;;;;;;;;;0.30;57.29;96019.34;4997601;28;19977;-77
2023/12/19 10:32:13;;;;;;;;;;;;;;;-0.39;58.13;96010.75;4997898;28;19967;-78
2023/12/19 10:34:38;;;;;;;;;;;;;;;-0.27;59.09;96003.03;4998692;28;19928;-80
2023/12/19 10:37:11;;;;;;;;;;;;;;;0.52;56.48;95997.78;4980153;28;19937;-79
2023/12/19 10:39:36;;;;;;;;;;;;;;;0.69;56.11;96001.00;4994221;28;20048;-77
2023/12/19 10:42:05;;;;;;;;;;;;;;;0.68;56.55;95987.06;4998965;28;20484;-77
2023/12/19 10:44:30;;;;;;;;;;;;;;;0.25;56.01;95998.72;4995793;28;20274;-80
2023/12/19 10:46:56;;;;;;;;;;;;;;;-1.10;61.41;95993.34;4997241;28;19917;-78
2023/12/19 10:49:21;;;;;;;;;;;;;;;-1.52;62.44;95998.47;5010332;28;19968;-69
2023/12/19 10:51:47;;;;;;;;;;;;;;;-1.49;63.91;95977.41;4986161;28;19960;-67
2023/12/19 10:54:12;;;;;;;;;;;;;;;-0.40;59.84;95979.44;4988108;28;19931;-67
2023/12/19 10:56:38;;;;;;;;;;;;;;;-0.21;59.47;95981.69;4983740;28;20457;-67
2023/12/19 10:59:07;;;;;;;;;;;;;;;-1.05;61.82;95973.91;4986316;28;19922;-68
2023/12/19 11:01:37;;;;;;;;;;;;;;;-1.00;60.82;95972.69;4988852;28;20286;-68
2023/12/19 11:04:04;;;;;;;;;;;;;;;-1.33;60.78;95958.19;4994365;28;19980;-68
2023/12/19 11:06:31;;;;;;;;;;;;;;;-0.54;60.65;95954.19;4991541;28;20111;-69
2023/12/19 11:08:58;;;;;;;;;;;;;;;-0.79;59.94;95953.97;4995493;28;20016;-69
2023/12/19 11:11:23;;;;;;;;;;;;;;;-0.30;59.65;95936.03;4971769;28;20305;-69
2023/12/19 11:13:49;;;;;;;;;;;;;;;-0.28;60.27;95920.22;4992222;28;19924;-67
2023/12/19 11:16:32;;;;;;;;;;;;;;;-1.18;61.40;95935.50;4998011;28;19929;-69
2023/12/19 11:19:03;;;;;;;;;;;;;;;-1.14;61.90;95928.28;5011554;28;19968;-68
2023/12/19 11:21:49;;;;;;;;;;;;;;;-1.75;65.38;95924.16;4988245;28;19940;-67
2023/12/19 11:24:18;;;;;;;;;;;;;;;-1.19;63.51;95927.75;4985974;28;19968;-67
2023/12/19 11:26:46;;;;;;;;;;;;;;;-0.01;59.47;95917.53;4985671;28;19922;-69
2023/12/19 11:29:30;;;;;;;;;;;;;;;0.46;58.09;95907.34;4986905;28;20418;-67
2023/12/19 11:31:55;;;;;;;;;;;;;;;0.17;60.17;95898.91;4985830;28;20009;-69
2023/12/19 11:34:21;;;;;;;;;;;;;;;0.48;60.14;95896.72;4987413;28;20075;-70
2023/12/19 11:36:47;;;;;;;;;;;;;;;0.46;57.50;95896.00;4984893;28;19931;-67
2023/12/19 11:39:22;;;;;;;;;;;;;;;0.32;59.75;95908.31;4988637;28;19926;-69
2023/12/19 11:41:47;;;;;;;;;;;;;;;0.65;59.84;95897.34;4986301;28;19971;-69
2023/12/19 11:44:31;;;;;;;;;;;;;;;0.67;56.85;95883.19;4987433;28;19929;-70
2023/12/19 11:47:18;;;;;;;;;;;;;;;0.45;58.15;95883.88;4987577;28;19925;-71
2023/12/19 11:49:44;;;;;;;;;;;;;;;-0.41;58.54;95883.59;4986822;28;20435;-68
2023/12/19 11:52:28;;;;;;;;;;;;;;;0.32;58.39;95876.88;4981668;28;19936;-69
2023/12/19 11:54:53;;;;;;;;;;;;;;;-0.11;59.21;95871.97;4984109;28;19922;-66
2023/12/19 11:57:19;;;;;;;;;;;;;;;0.14;58.96;95878.16;4984398;28;20369;-67
2023/12/19 11:59:46;;;;;;;;;;;;;;;-0.60;60.50;95877.78;4986046;28;19930;-70
2023/12/19 12:02:11;;;;;;;;;;;;;;;-2.03;66.32;95865.81;4987158;28;19941;-68
2023/12/19 12:04:37;;;;;;;;;;;;;;;-0.41;63.69;95852.19;4984837;28;19925;-67
2023/12/19 12:07:02;;;;;;;;;;;;;;;0.08;60.19;95854.03;4984750;28;20504;-69
2023/12/19 12:09:27;;;;;;;;;;;;;;;-0.46;60.80;95842.88;4987263;28;19965;-68
2023/12/19 12:11:54;;;;;;;;;;;;;;;-0.37;60.57;95844.00;4986403;28;19926;-68
2023/12/19 12:14:20;;;;;;;;;;;;;;;-0.02;60.61;95831.22;4985356;28;19922;-65
2023/12/19 12:16:45;;;;;;;;;;;;;;;0.44;59.92;95828.00;4985529;28;19925;-67
2023/12/19 12:19:14;;;;;;;;;;;;;;;0.84;58.34;95816.44;4984467;28;19987;-68
2023/12/19 12:21:52;;;;;;;;;;;;;;;0.89;56.44;95821.31;4985226;28;20486;-67
2023/12/19 12:24:25;;;;;;;;;;;;;;;0.22;58.93;95815.59;4983187;28;19929;-67
2023/12/19 12:26:51;;;;;;;;;;;;;;;-0.28;62.99;95805.91;4985403;28;19922;-67
2023/12/19 12:29:17;;;;;;;;;;;;;;;-0.20;61.12;95806.22;4986150;28;19964;-67
2023/12/19 12:31:43;;;;;;;;;;;;;;;0.30;61.46;95805.41;4984197;28;19962;-67
2023/12/19 12:34:08;;;;;;;;;;;;;;;0.94;58.52;95797.41;4985113;28;19922;-66
2023/12/19 12:36:34;;;;;;;;;;;;;;;0.66;58.83;95792.41;4987404;28;19925;-67
2023/12/19 12:38:59;;;;;;;;;;;;;;;0.17;58.79;95784.50;5000835;28;19931;-65
2023/12/19 12:41:24;;;;;;;;;;;;;;;0.54;59.73;95783.63;4986051;28;20283;-67
2023/12/19 12:43:54;;;;;;;;;;;;;;;0.58;60.82;95777.22;4983911;28;20024;-65
2023/12/19 12:46:21;;;;;;;;;;;;;;;-0.17;62.24;95779.00;4987184;28;20002;-66